sensor_id;sensor_type;location;lat;lon;timestamp;pressure;altitude;pressure_sealevel;temperature;humidity
83195;BME280;73090;49.282;11.402;2024-03-23T01:10:33;95727.53;;;6.19;88.08
83195;BME280;73090;49.282;11.402;2024-03-23T01:30:34;95692.44;;;5.84;89.13
83195;BME280;73090;49.282;11.402;2024-03-23T01:50:35;95686.63;;;5.58;88.89
83195;BME280;73090;49.282;11.402;2024-03-23T02:10:36;95662.44;;;5.64;89.92
83195;BME280;73090;49.282;11.402;2024-03-23T02:30:37;95642.59;;;6.02;89.82
83195;BME280;73090;49.282;11.402;2024-03-23T02:50:38;95602.06;;;6.72;84.50
83195;BME280;73090;49.282;11.402;2024-03-23T03:10:38;95557.78;;;6.85;84.41
83195;BME280;73090;49.282;11.402;2024-03-23T03:30:39;95528.81;;;6.59;85.53
83195;BME280;73090;49.282;11.402;2024-03-23T03:50:40;95501.75;;;6.66;86.90
83195;BME280;73090;49.282;11.402;2024-03-23T04:10:40;95483.97;;;6.55;86.99
83195;BME280;73090;49.282;11.402;2024-03-23T04:30:41;95457.19;;;6.68;86.35
83195;BME280;73090;49.282;11.402;2024-03-23T04:50:42;95429.81;;;7.20;80.54
83195;BME280;73090;49.282;11.402;2024-03-23T05:10:43;95401.53;;;6.96;80.45
83195;BME280;73090;49.282;11.402;2024-03-23T05:30:44;95389.66;;;6.37;83.29
83195;BME280;73090;49.282;11.402;2024-03-23T05:50:44;95363.53;;;5.93;87.49
83195;BME280;73090;49.282;11.402;2024-03-23T06:10:46;95338.63;;;6.90;88.23
83195;BME280;73090;49.282;11.402;2024-03-23T06:30:46;95374.28;;;8.68;78.61
83195;BME280;73090;49.282;11.402;2024-03-23T06:50:47;95413.53;;;8.15;90.96
83195;BME280;73090;49.282;11.402;2024-03-23T07:10:48;95410.84;;;7.88;94.12
83195;BME280;73090;49.282;11.402;2024-03-23T07:31:01;95421.81;;;7.63;93.77
83195;BME280;73090;49.282;11.402;2024-03-23T07:51:14;95419.91;;;7.44;95.27
83195;BME280;73090;49.282;11.402;2024-03-23T08:11:14;95440.72;;;7.66;94.48
83195;BME280;73090;49.282;11.402;2024-03-23T08:31:15;95466.44;;;7.97;93.26
83195;BME280;73090;49.282;11.402;2024-03-23T08:51:16;95485.75;;;7.96;88.77
83195;BME280;73090;49.282;11.402;2024-03-23T09:11:17;95606.63;;;6.85;88.73
83195;BME280;73090;49.282;11.402;2024-03-23T09:31:17;95639.97;;;6.68;82.00
83195;BME280;73090;49.282;11.402;2024-03-23T09:51:18;95688.47;;;6.56;77.53
83195;BME280;73090;49.282;11.402;2024-03-23T10:11:19;95719.41;;;7.25;75.11
83195;BME280;73090;49.282;11.402;2024-03-23T10:31:21;95752.81;;;6.93;74.08
83195;BME280;73090;49.282;11.402;2024-03-23T10:51:22;95744.63;;;6.66;69.83
83195;BME280;73090;49.282;11.402;2024-03-23T11:11:24;95758.69;;;5.51;77.13
83195;BME280;73090;49.282;11.402;2024-03-23T11:31:25;95757.53;;;6.83;78.16
83195;BME280;73090;49.282;11.402;2024-03-23T11:51:26;95809.31;;;6.94;70.38
83195;BME280;73090;49.282;11.402;2024-03-23T12:11:26;95823.97;;;6.50;66.96
83195;BME280;73090;49.282;11.402;2024-03-23T12:31:27;95770.41;;;6.69;62.43
83195;BME280;73090;49.282;11.402;2024-03-23T12:51:30;95739.41;;;7.97;55.74
83195;BME280;73090;49.282;11.402;2024-03-23T13:11:31;95783.28;;;7.37;58.33
83195;BME280;73090;49.282;11.402;2024-03-23T13:31:31;95764.94;;;7.16;54.87
83195;BME280;73090;49.282;11.402;2024-03-23T13:51:32;95752.97;;;8.36;50.42
83195;BME280;73090;49.282;11.402;2024-03-23T14:11:33;95736.34;;;8.44;49.65
83195;BME280;73090;49.282;11.402;2024-03-23T14:31:34;95705.31;;;8.47;48.50
83195;BME280;73090;49.282;11.402;2024-03-23T14:51:34;95696.84;;;8.17;49.78
83195;BME280;73090;49.282;11.402;2024-03-23T15:11:35;95698.25;;;7.85;50.26
83195;BME280;73090;49.282;11.402;2024-03-23T15:31:36;95683.84;;;7.74;50.04
83195;BME280;73090;49.282;11.402;2024-03-23T15:51:37;95809.22;;;4.63;78.80
83195;BME280;73090;49.282;11.402;2024-03-23T16:11:39;95796.13;;;4.15;80.06
83195;BME280;73090;49.282;11.402;2024-03-23T16:31:39;95795.16;;;4.41;81.07
83195;BME280;73090;49.282;11.402;2024-03-23T16:51:40;95795.97;;;4.08;80.32
83195;BME280;73090;49.282;11.402;2024-03-23T17:11:41;95790.13;;;4.14;75.86
83195;BME280;73090;49.282;11.402;2024-03-23T17:31:43;95788.34;;;3.74;74.72
83195;BME280;73090;49.282;11.402;2024-03-23T17:51:44;95820.28;;;3.33;74.11
83195;BME280;73090;49.282;11.402;2024-03-23T18:11:45;95839.19;;;3.09;75.77
83195;BME280;73090;49.282;11.402;2024-03-23T18:31:45;95850.47;;;2.92;77.15
83195;BME280;73090;49.282;11.402;2024-03-23T18:51:46;95838.88;;;3.12;79.36
83195;BME280;73090;49.282;11.402;2024-03-23T19:11:47;95837.22;;;3.03;79.72
83195;BME280;73090;49.282;11.402;2024-03-23T19:31:48;95837.41;;;3.09;79.03
83195;BME280;73090;49.282;11.402;2024-03-23T19:51:49;95827.94;;;3.00;78.04
83195;BME280;73090;49.282;11.402;2024-03-23T20:11:49;95812.53;;;2.64;75.65
83195;BME280;73090;49.282;11.402;2024-03-23T20:31:50;95805.09;;;2.43;77.73
83195;BME280;73090;49.282;11.402;2024-03-23T20:51:53;95831.31;;;2.32;78.90
83195;BME280;73090;49.282;11.402;2024-03-23T21:11:53;95820.72;;;2.25;80.80
83195;BME280;73090;49.282;11.402;2024-03-23T21:31:54;95817.78;;;2.20;81.41
83195;BME280;73090;49.282;11.402;2024-03-23T21:51:55;95815.13;;;2.12;81.95
83195;BME280;73090;49.282;11.402;2024-03-23T22:12:00;95794.25;;;2.13;81.88
83195;BME280;73090;49.282;11.402;2024-03-23T22:32:00;95799.28;;;2.15;80.91
83195;BME280;73090;49.282;11.402;2024-03-23T22:52:04;95797.34;;;2.17;81.05
83195;BME280;73090;49.282;11.402;2024-03-23T23:12:05;95774.75;;;2.09;80.66
83195;BME280;73090;49.282;11.402;2024-03-23T23:32:07;95766.69;;;2.12;79.95
83195;BME280;73090;49.282;11.402;2024-03-23T23:52:09;95755.91;;;1.99;80.56
